sensor_id;sensor_type;location;lat;lon;timestamp;temperature;humidity
81321;DHT22;70785;52.570;5.638;2024-01-11T00:01:49;-5.60;70.40
81321;DHT22;70785;52.570;5.638;2024-01-11T00:04:15;-5.70;70.40
81321;DHT22;70785;52.570;5.638;2024-01-11T00:06:42;-5.70;70.60
81321;DHT22;70785;52.570;5.638;2024-01-11T00:09:09;-5.60;70.80
81321;DHT22;70785;52.570;5.638;2024-01-11T00:11:35;-5.60;70.80
81321;DHT22;70785;52.570;5.638;2024-01-11T00:14:01;-5.70;70.80
81321;DHT22;70785;52.570;5.638;2024-01-11T00:16:27;-5.70;70.70
81321;DHT22;70785;52.570;5.638;2024-01-11T00:18:53;-5.70;70.70
81321;DHT22;70785;52.570;5.638;2024-01-11T00:21:19;-5.70;71.00
81321;DHT22;70785;52.570;5.638;2024-01-11T00:23:45;-5.70;71.30
81321;DHT22;70785;52.570;5.638;2024-01-11T00:26:12;-5.70;71.40
81321;DHT22;70785;52.570;5.638;2024-01-11T00:28:38;-5.70;71.50
81321;DHT22;70785;52.570;5.638;2024-01-11T00:31:05;-5.80;71.60
81321;DHT22;70785;52.570;5.638;2024-01-11T00:33:31;-5.80;71.50
81321;DHT22;70785;52.570;5.638;2024-01-11T00:35:58;-5.80;71.70
81321;DHT22;70785;52.570;5.638;2024-01-11T00:38:24;-5.80;71.70
81321;DHT22;70785;52.570;5.638;2024-01-11T00:40:50;-5.80;71.60
81321;DHT22;70785;52.570;5.638;2024-01-11T00:43:16;-5.90;71.60
81321;DHT22;70785;52.570;5.638;2024-01-11T00:45:44;-6.00;71.60
81321;DHT22;70785;52.570;5.638;2024-01-11T00:48:10;-6.00;71.60
81321;DHT22;70785;52.570;5.638;2024-01-11T00:50:36;-6.00;71.60
81321;DHT22;70785;52.570;5.638;2024-01-11T00:53:03;-6.00;71.60
81321;DHT22;70785;52.570;5.638;2024-01-11T00:55:29;-6.00;71.60
81321;DHT22;70785;52.570;5.638;2024-01-11T00:57:55;-6.00;71.50
81321;DHT22;70785;52.570;5.638;2024-01-11T01:00:21;-6.00;71.60
81321;DHT22;70785;52.570;5.638;2024-01-11T01:02:47;-6.00;71.60
81321;DHT22;70785;52.570;5.638;2024-01-11T01:05:13;-6.00;71.60
81321;DHT22;70785;52.570;5.638;2024-01-11T01:07:40;-6.00;71.60
81321;DHT22;70785;52.570;5.638;2024-01-11T01:10:07;-6.00;71.60
81321;DHT22;70785;52.570;5.638;2024-01-11T01:12:34;-6.00;71.60
81321;DHT22;70785;52.570;5.638;2024-01-11T01:15:00;-6.00;71.50
81321;DHT22;70785;52.570;5.638;2024-01-11T01:17:26;-6.00;71.50
81321;DHT22;70785;52.570;5.638;2024-01-11T01:19:52;-6.00;71.50
81321;DHT22;70785;52.570;5.638;2024-01-11T01:22:18;-6.00;71.70
81321;DHT22;70785;52.570;5.638;2024-01-11T01:24:44;-6.00;72.10
81321;DHT22;70785;52.570;5.638;2024-01-11T01:27:10;-6.00;72.20
81321;DHT22;70785;52.570;5.638;2024-01-11T01:29:36;-6.00;72.10
81321;DHT22;70785;52.570;5.638;2024-01-11T01:32:03;-6.00;72.00
81321;DHT22;70785;52.570;5.638;2024-01-11T01:34:29;-6.00;72.10
81321;DHT22;70785;52.570;5.638;2024-01-11T01:36:55;-6.10;72.10
81321;DHT22;70785;52.570;5.638;2024-01-11T01:39:21;-6.10;72.00
81321;DHT22;70785;52.570;5.638;2024-01-11T01:41:47;-6.00;72.30
81321;DHT22;70785;52.570;5.638;2024-01-11T01:44:13;-6.10;72.30
81321;DHT22;70785;52.570;5.638;2024-01-11T01:46:39;-6.10;72.20
81321;DHT22;70785;52.570;5.638;2024-01-11T01:49:05;-6.10;72.40
81321;DHT22;70785;52.570;5.638;2024-01-11T01:51:32;-6.10;72.40
81321;DHT22;70785;52.570;5.638;2024-01-11T01:54:00;-6.10;72.50
81321;DHT22;70785;52.570;5.638;2024-01-11T01:56:28;-6.10;72.40
81321;DHT22;70785;52.570;5.638;2024-01-11T01:58:55;-6.10;72.40
81321;DHT22;70785;52.570;5.638;2024-01-11T02:01:23;-6.10;72.40
81321;DHT22;70785;52.570;5.638;2024-01-11T02:03:53;-6.20;72.50
81321;DHT22;70785;52.570;5.638;2024-01-11T02:06:23;-6.20;72.50
81321;DHT22;70785;52.570;5.638;2024-01-11T02:08:55;-6.20;72.40
81321;DHT22;70785;52.570;5.638;2024-01-11T02:11:23;-6.20;72.50
81321;DHT22;70785;52.570;5.638;2024-01-11T02:13:50;-6.20;72.50
81321;DHT22;70785;52.570;5.638;2024-01-11T02:16:16;-6.20;72.40
81321;DHT22;70785;52.570;5.638;2024-01-11T02:18:43;-6.20;72.30
81321;DHT22;70785;52.570;5.638;2024-01-11T02:21:11;-6.20;72.40
81321;DHT22;70785;52.570;5.638;2024-01-11T02:23:44;-6.20;72.40
81321;DHT22;70785;52.570;5.638;2024-01-11T02:26:14;-6.20;72.50
81321;DHT22;70785;52.570;5.638;2024-01-11T02:28:44;-6.20;72.50
81321;DHT22;70785;52.570;5.638;2024-01-11T02:31:12;-6.20;72.40
81321;DHT22;70785;52.570;5.638;2024-01-11T02:33:39;-6.20;72.40
81321;DHT22;70785;52.570;5.638;2024-01-11T02:36:06;-6.20;72.40
81321;DHT22;70785;52.570;5.638;2024-01-11T02:38:33;-6.20;72.60
81321;DHT22;70785;52.570;5.638;2024-01-11T02:41:00;-6.20;72.60
81321;DHT22;70785;52.570;5.638;2024-01-11T02:43:26;-6.30;72.60
81321;DHT22;70785;52.570;5.638;2024-01-11T02:45:56;-6.20;72.60
81321;DHT22;70785;52.570;5.638;2024-01-11T02:48:30;-6.30;72.70
81321;DHT22;70785;52.570;5.638;2024-01-11T02:50:59;-6.30;72.60
81321;DHT22;70785;52.570;5.638;2024-01-11T02:53:25;-6.30;72.60
81321;DHT22;70785;52.570;5.638;2024-01-11T02:55:51;-6.30;72.60
81321;DHT22;70785;52.570;5.638;2024-01-11T02:58:18;-6.30;72.60
81321;DHT22;70785;52.570;5.638;2024-01-11T03:00:44;-6.40;72.70
81321;DHT22;70785;52.570;5.638;2024-01-11T03:03:10;-6.40;72.70
81321;DHT22;70785;52.570;5.638;2024-01-11T03:05:36;-6.40;72.70
81321;DHT22;70785;52.570;5.638;2024-01-11T03:08:02;-6.40;72.70
81321;DHT22;70785;52.570;5.638;2024-01-11T03:10:28;-6.50;72.70
81321;DHT22;70785;52.570;5.638;2024-01-11T03:12:54;-6.50;72.80
81321;DHT22;70785;52.570;5.638;2024-01-11T03:15:20;-6.50;72.70
81321;DHT22;70785;52.570;5.638;2024-01-11T03:17:47;-6.50;72.70
81321;DHT22;70785;52.570;5.638;2024-01-11T03:20:13;-6.50;72.80
81321;DHT22;70785;52.570;5.638;2024-01-11T03:22:45;-6.50;72.80
81321;DHT22;70785;52.570;5.638;2024-01-11T03:25:11;-6.50;72.80
81321;DHT22;70785;52.570;5.638;2024-01-11T03:27:37;-6.50;72.80
81321;DHT22;70785;52.570;5.638;2024-01-11T03:30:04;-6.50;72.80
81321;DHT22;70785;52.570;5.638;2024-01-11T03:32:30;-6.50;72.90
81321;DHT22;70785;52.570;5.638;2024-01-11T03:34:56;-6.50;72.90
81321;DHT22;70785;52.570;5.638;2024-01-11T03:37:22;-6.50;72.90
81321;DHT22;70785;52.570;5.638;2024-01-11T03:39:48;-6.40;73.10
81321;DHT22;70785;52.570;5.638;2024-01-11T03:42:15;-6.40;73.20
81321;DHT22;70785;52.570;5.638;2024-01-11T03:44:41;-6.40;73.20
81321;DHT22;70785;52.570;5.638;2024-01-11T03:47:07;-6.40;73.20
81321;DHT22;70785;52.570;5.638;2024-01-11T03:49:33;-6.40;73.10
81321;DHT22;70785;52.570;5.638;2024-01-11T03:51:59;-6.40;73.20
81321;DHT22;70785;52.570;5.638;2024-01-11T03:54:25;-6.40;73.10
81321;DHT22;70785;52.570;5.638;2024-01-11T03:56:51;-6.40;73.30
81321;DHT22;70785;52.570;5.638;2024-01-11T03:59:17;-6.30;73.40
81321;DHT22;70785;52.570;5.638;2024-01-11T04:01:43;-6.30;73.40
81321;DHT22;70785;52.570;5.638;2024-01-11T04:04:10;-6.30;73.40
81321;DHT22;70785;52.570;5.638;2024-01-11T04:06:36;-6.30;73.50
81321;DHT22;70785;52.570;5.638;2024-01-11T04:09:02;-6.30;73.40
81321;DHT22;70785;52.570;5.638;2024-01-11T04:11:29;-6.20;73.40
81321;DHT22;70785;52.570;5.638;2024-01-11T04:13:55;-6.30;73.50
81321;DHT22;70785;52.570;5.638;2024-01-11T04:16:21;-6.20;73.50
81321;DHT22;70785;52.570;5.638;2024-01-11T04:18:48;-6.20;73.50
81321;DHT22;70785;52.570;5.638;2024-01-11T04:21:24;-6.20;73.50
81321;DHT22;70785;52.570;5.638;2024-01-11T04:23:51;-6.20;73.40
81321;DHT22;70785;52.570;5.638;2024-01-11T04:26:17;-6.20;73.30
81321;DHT22;70785;52.570;5.638;2024-01-11T04:28:45;-6.30;73.30
81321;DHT22;70785;52.570;5.638;2024-01-11T04:31:12;-6.30;73.40
81321;DHT22;70785;52.570;5.638;2024-01-11T04:33:41;-6.30;73.40
81321;DHT22;70785;52.570;5.638;2024-01-11T04:36:12;-6.40;73.40
81321;DHT22;70785;52.570;5.638;2024-01-11T04:38:38;-6.40;73.30
81321;DHT22;70785;52.570;5.638;2024-01-11T04:41:14;-6.40;73.30
81321;DHT22;70785;52.570;5.638;2024-01-11T04:43:42;-6.50;73.40
81321;DHT22;70785;52.570;5.638;2024-01-11T04:46:20;-6.50;73.40
81321;DHT22;70785;52.570;5.638;2024-01-11T04:48:47;-6.50;73.30
81321;DHT22;70785;52.570;5.638;2024-01-11T04:51:15;-6.50;73.30
81321;DHT22;70785;52.570;5.638;2024-01-11T04:53:43;-6.60;73.30
81321;DHT22;70785;52.570;5.638;2024-01-11T04:56:10;-6.60;73.40
81321;DHT22;70785;52.570;5.638;2024-01-11T04:58:40;-6.70;73.40
81321;DHT22;70785;52.570;5.638;2024-01-11T05:01:07;-6.70;73.50
81321;DHT22;70785;52.570;5.638;2024-01-11T05:03:33;-6.70;73.40
81321;DHT22;70785;52.570;5.638;2024-01-11T05:05:59;-6.70;73.40
81321;DHT22;70785;52.570;5.638;2024-01-11T05:08:26;-6.70;73.40
81321;DHT22;70785;52.570;5.638;2024-01-11T05:10:52;-6.70;73.40
81321;DHT22;70785;52.570;5.638;2024-01-11T05:13:18;-6.70;73.40
81321;DHT22;70785;52.570;5.638;2024-01-11T05:15:45;-6.70;73.50
81321;DHT22;70785;52.570;5.638;2024-01-11T05:18:11;-6.70;73.40
81321;DHT22;70785;52.570;5.638;2024-01-11T05:20:38;-6.70;73.20
81321;DHT22;70785;52.570;5.638;2024-01-11T05:23:04;-6.60;73.20
81321;DHT22;70785;52.570;5.638;2024-01-11T05:25:31;-6.60;73.20
81321;DHT22;70785;52.570;5.638;2024-01-11T05:28:01;-6.60;73.20
81321;DHT22;70785;52.570;5.638;2024-01-11T05:30:28;-6.60;73.10
81321;DHT22;70785;52.570;5.638;2024-01-11T05:32:54;-6.60;73.10
81321;DHT22;70785;52.570;5.638;2024-01-11T05:35:21;-6.60;73.20
81321;DHT22;70785;52.570;5.638;2024-01-11T05:37:53;-6.60;73.20
81321;DHT22;70785;52.570;5.638;2024-01-11T05:40:20;-6.50;73.20
81321;DHT22;70785;52.570;5.638;2024-01-11T05:42:47;-6.50;73.20
81321;DHT22;70785;52.570;5.638;2024-01-11T05:45:14;-6.40;73.30
81321;DHT22;70785;52.570;5.638;2024-01-11T05:47:43;-6.40;73.30
81321;DHT22;70785;52.570;5.638;2024-01-11T05:50:10;-6.40;73.40
81321;DHT22;70785;52.570;5.638;2024-01-11T05:52:37;-6.40;73.60
81321;DHT22;70785;52.570;5.638;2024-01-11T05:55:03;-6.40;73.70
81321;DHT22;70785;52.570;5.638;2024-01-11T05:57:31;-6.40;73.70
81321;DHT22;70785;52.570;5.638;2024-01-11T05:59:57;-6.40;73.80
81321;DHT22;70785;52.570;5.638;2024-01-11T06:02:23;-6.40;73.80
81321;DHT22;70785;52.570;5.638;2024-01-11T06:04:49;-6.40;73.90
81321;DHT22;70785;52.570;5.638;2024-01-11T06:07:15;-6.40;73.90
81321;DHT22;70785;52.570;5.638;2024-01-11T06:09:41;-6.40;73.90
81321;DHT22;70785;52.570;5.638;2024-01-11T06:12:08;-6.30;73.90
81321;DHT22;70785;52.570;5.638;2024-01-11T06:14:35;-6.30;74.00
81321;DHT22;70785;52.570;5.638;2024-01-11T06:17:01;-6.30;74.00
81321;DHT22;70785;52.570;5.638;2024-01-11T06:19:27;-6.20;74.00
81321;DHT22;70785;52.570;5.638;2024-01-11T06:21:53;-6.20;74.00
81321;DHT22;70785;52.570;5.638;2024-01-11T06:24:19;-6.30;74.00
81321;DHT22;70785;52.570;5.638;2024-01-11T06:26:45;-6.20;74.00
81321;DHT22;70785;52.570;5.638;2024-01-11T06:29:12;-6.30;74.00
81321;DHT22;70785;52.570;5.638;2024-01-11T06:31:38;-6.20;74.00
81321;DHT22;70785;52.570;5.638;2024-01-11T06:34:04;-6.20;74.00
81321;DHT22;70785;52.570;5.638;2024-01-11T06:36:30;-6.20;74.10
81321;DHT22;70785;52.570;5.638;2024-01-11T06:38:56;-6.20;74.10
81321;DHT22;70785;52.570;5.638;2024-01-11T06:41:22;-6.10;74.20
81321;DHT22;70785;52.570;5.638;2024-01-11T06:43:48;-6.10;74.10
81321;DHT22;70785;52.570;5.638;2024-01-11T06:46:20;-6.10;74.10
81321;DHT22;70785;52.570;5.638;2024-01-11T06:48:49;-6.00;74.10
81321;DHT22;70785;52.570;5.638;2024-01-11T06:51:16;-6.00;74.20
81321;DHT22;70785;52.570;5.638;2024-01-11T06:53:42;-6.00;74.20
81321;DHT22;70785;52.570;5.638;2024-01-11T06:56:19;-6.00;74.20
81321;DHT22;70785;52.570;5.638;2024-01-11T06:58:46;-6.00;74.30
81321;DHT22;70785;52.570;5.638;2024-01-11T07:01:13;-6.00;74.30
81321;DHT22;70785;52.570;5.638;2024-01-11T07:03:39;-6.00;74.10
81321;DHT22;70785;52.570;5.638;2024-01-11T07:06:06;-6.00;74.00
81321;DHT22;70785;52.570;5.638;2024-01-11T07:08:32;-6.00;74.00
81321;DHT22;70785;52.570;5.638;2024-01-11T07:11:02;-5.90;74.00
81321;DHT22;70785;52.570;5.638;2024-01-11T07:13:29;-5.90;74.00
81321;DHT22;70785;52.570;5.638;2024-01-11T07:15:55;-5.80;74.00
81321;DHT22;70785;52.570;5.638;2024-01-11T07:18:23;-5.60;73.90
81321;DHT22;70785;52.570;5.638;2024-01-11T07:20:50;-5.60;73.90
81321;DHT22;70785;52.570;5.638;2024-01-11T07:23:17;-5.40;73.80
81321;DHT22;70785;52.570;5.638;2024-01-11T07:25:43;-5.20;73.60
81321;DHT22;70785;52.570;5.638;2024-01-11T07:28:09;-5.10;73.40
81321;DHT22;70785;52.570;5.638;2024-01-11T07:30:35;-5.00;73.30
81321;DHT22;70785;52.570;5.638;2024-01-11T07:33:01;-4.90;73.20
81321;DHT22;70785;52.570;5.638;2024-01-11T07:35:27;-4.70;73.20
81321;DHT22;70785;52.570;5.638;2024-01-11T07:37:53;-4.60;73.10
81321;DHT22;70785;52.570;5.638;2024-01-11T07:40:20;-4.50;73.00
81321;DHT22;70785;52.570;5.638;2024-01-11T07:42:46;-4.40;73.00
81321;DHT22;70785;52.570;5.638;2024-01-11T07:45:12;-4.30;72.90
81321;DHT22;70785;52.570;5.638;2024-01-11T07:47:39;-4.20;72.90
81321;DHT22;70785;52.570;5.638;2024-01-11T07:50:06;-4.10;72.80
81321;DHT22;70785;52.570;5.638;2024-01-11T07:52:33;-4.00;72.70
81321;DHT22;70785;52.570;5.638;2024-01-11T07:54:59;-4.00;72.70
81321;DHT22;70785;52.570;5.638;2024-01-11T07:57:37;-3.80;72.70
81321;DHT22;70785;52.570;5.638;2024-01-11T08:00:06;-3.80;72.70
81321;DHT22;70785;52.570;5.638;2024-01-11T08:02:38;-3.70;72.60
81321;DHT22;70785;52.570;5.638;2024-01-11T08:05:05;-3.60;72.60
81321;DHT22;70785;52.570;5.638;2024-01-11T08:07:31;-3.60;72.60
81321;DHT22;70785;52.570;5.638;2024-01-11T08:09:57;-3.50;72.50
81321;DHT22;70785;52.570;5.638;2024-01-11T08:12:24;-3.50;72.50
81321;DHT22;70785;52.570;5.638;2024-01-11T08:14:50;-3.40;72.50
81321;DHT22;70785;52.570;5.638;2024-01-11T08:17:17;-3.40;72.40
81321;DHT22;70785;52.570;5.638;2024-01-11T08:19:43;-3.30;72.40
81321;DHT22;70785;52.570;5.638;2024-01-11T08:22:10;-3.20;72.30
81321;DHT22;70785;52.570;5.638;2024-01-11T08:24:36;-3.20;72.30
81321;DHT22;70785;52.570;5.638;2024-01-11T08:27:04;-3.10;72.30
81321;DHT22;70785;52.570;5.638;2024-01-11T08:29:30;-3.10;72.20
81321;DHT22;70785;52.570;5.638;2024-01-11T08:31:56;-3.00;72.20
81321;DHT22;70785;52.570;5.638;2024-01-11T08:34:23;-2.90;72.20
81321;DHT22;70785;52.570;5.638;2024-01-11T08:36:52;-2.90;72.20
81321;DHT22;70785;52.570;5.638;2024-01-11T08:39:18;-2.80;72.10
81321;DHT22;70785;52.570;5.638;2024-01-11T08:41:44;-2.80;72.10
81321;DHT22;70785;52.570;5.638;2024-01-11T08:44:11;-2.70;72.00
81321;DHT22;70785;52.570;5.638;2024-01-11T08:46:37;-2.70;72.00
81321;DHT22;70785;52.570;5.638;2024-01-11T08:49:03;-2.70;72.00
81321;DHT22;70785;52.570;5.638;2024-01-11T08:51:30;-2.60;71.90
81321;DHT22;70785;52.570;5.638;2024-01-11T08:53:56;-2.60;72.00
81321;DHT22;70785;52.570;5.638;2024-01-11T08:56:24;-2.50;72.00
81321;DHT22;70785;52.570;5.638;2024-01-11T08:58:51;-2.50;71.90
81321;DHT22;70785;52.570;5.638;2024-01-11T09:01:17;-2.40;71.90
81321;DHT22;70785;52.570;5.638;2024-01-11T09:03:44;-2.40;71.90
81321;DHT22;70785;52.570;5.638;2024-01-11T09:06:10;-2.30;71.80
81321;DHT22;70785;52.570;5.638;2024-01-11T09:08:37;-2.30;71.90
81321;DHT22;70785;52.570;5.638;2024-01-11T09:11:03;-2.20;71.80
81321;DHT22;70785;52.570;5.638;2024-01-11T09:13:29;-2.20;71.70
81321;DHT22;70785;52.570;5.638;2024-01-11T09:15:55;-2.10;71.70
81321;DHT22;70785;52.570;5.638;2024-01-11T09:18:22;-2.00;71.60
81321;DHT22;70785;52.570;5.638;2024-01-11T09:20:48;-1.90;71.60
81321;DHT22;70785;52.570;5.638;2024-01-11T09:23:15;-1.90;71.60
81321;DHT22;70785;52.570;5.638;2024-01-11T09:25:41;-1.80;71.50
81321;DHT22;70785;52.570;5.638;2024-01-11T09:28:08;-1.80;71.50
81321;DHT22;70785;52.570;5.638;2024-01-11T09:30:34;-1.70;71.50
81321;DHT22;70785;52.570;5.638;2024-01-11T09:33:00;-1.60;71.40
81321;DHT22;70785;52.570;5.638;2024-01-11T09:35:26;-1.60;71.50
81321;DHT22;70785;52.570;5.638;2024-01-11T09:37:52;-1.50;71.50
81321;DHT22;70785;52.570;5.638;2024-01-11T09:40:19;-1.50;71.40
81321;DHT22;70785;52.570;5.638;2024-01-11T09:42:45;-1.40;71.40
81321;DHT22;70785;52.570;5.638;2024-01-11T09:45:15;-1.30;71.30
81321;DHT22;70785;52.570;5.638;2024-01-11T09:47:43;-1.30;71.30
81321;DHT22;70785;52.570;5.638;2024-01-11T09:50:11;-1.20;71.20
81321;DHT22;70785;52.570;5.638;2024-01-11T09:52:46;-1.10;71.20
81321;DHT22;70785;52.570;5.638;2024-01-11T09:55:13;-1.10;71.20
81321;DHT22;70785;52.570;5.638;2024-01-11T09:57:44;-1.10;71.10
81321;DHT22;70785;52.570;5.638;2024-01-11T10:00:13;-1.10;71.20
81321;DHT22;70785;52.570;5.638;2024-01-11T10:02:39;-1.00;71.10
81321;DHT22;70785;52.570;5.638;2024-01-11T10:05:06;-1.00;71.10
81321;DHT22;70785;52.570;5.638;2024-01-11T10:07:33;-1.00;71.20
81321;DHT22;70785;52.570;5.638;2024-01-11T10:10:00;-0.90;71.20
81321;DHT22;70785;52.570;5.638;2024-01-11T10:12:27;-0.90;71.10
81321;DHT22;70785;52.570;5.638;2024-01-11T10:14:54;-0.70;71.10
81321;DHT22;70785;52.570;5.638;2024-01-11T10:17:20;-0.70;71.00
81321;DHT22;70785;52.570;5.638;2024-01-11T10:19:46;-0.70;71.00
81321;DHT22;70785;52.570;5.638;2024-01-11T10:22:12;-0.60;70.90
81321;DHT22;70785;52.570;5.638;2024-01-11T10:24:42;-0.60;70.90
81321;DHT22;70785;52.570;5.638;2024-01-11T10:27:09;-0.60;70.90
81321;DHT22;70785;52.570;5.638;2024-01-11T10:29:36;-0.60;71.00
81321;DHT22;70785;52.570;5.638;2024-01-11T10:32:06;-0.50;70.90
81321;DHT22;70785;52.570;5.638;2024-01-11T10:34:32;-0.50;71.00
81321;DHT22;70785;52.570;5.638;2024-01-11T10:36:59;-0.50;71.00
81321;DHT22;70785;52.570;5.638;2024-01-11T10:39:26;-0.40;71.00
81321;DHT22;70785;52.570;5.638;2024-01-11T10:42:05;-0.30;70.90
81321;DHT22;70785;52.570;5.638;2024-01-11T10:44:33;-0.30;71.00
81321;DHT22;70785;52.570;5.638;2024-01-11T10:47:02;-0.20;70.90
81321;DHT22;70785;52.570;5.638;2024-01-11T10:49:30;-0.20;70.80
81321;DHT22;70785;52.570;5.638;2024-01-11T10:52:04;-0.10;70.80
81321;DHT22;70785;52.570;5.638;2024-01-11T10:54:33;-0.10;70.80
81321;DHT22;70785;52.570;5.638;2024-01-11T10:57:00;0.00;70.80
81321;DHT22;70785;52.570;5.638;2024-01-11T10:59:27;0.00;70.80
81321;DHT22;70785;52.570;5.638;2024-01-11T11:01:58;0.00;70.70
81321;DHT22;70785;52.570;5.638;2024-01-11T11:04:28;0.10;70.70
81321;DHT22;70785;52.570;5.638;2024-01-11T11:06:55;0.20;70.70
81321;DHT22;70785;52.570;5.638;2024-01-11T11:09:25;0.20;70.70
81321;DHT22;70785;52.570;5.638;2024-01-11T11:11:56;0.30;70.70
81321;DHT22;70785;52.570;5.638;2024-01-11T11:14:24;0.30;70.80
81321;DHT22;70785;52.570;5.638;2024-01-11T11:16:51;0.30;70.70
81321;DHT22;70785;52.570;5.638;2024-01-11T11:19:20;0.40;70.70
81321;DHT22;70785;52.570;5.638;2024-01-11T11:21:48;0.40;70.60
81321;DHT22;70785;52.570;5.638;2024-01-11T11:24:16;0.50;70.60
81321;DHT22;70785;52.570;5.638;2024-01-11T11:26:42;0.50;70.60
81321;DHT22;70785;52.570;5.638;2024-01-11T11:29:09;0.50;70.60
81321;DHT22;70785;52.570;5.638;2024-01-11T11:31:35;0.50;70.50
81321;DHT22;70785;52.570;5.638;2024-01-11T11:34:04;0.50;70.50
81321;DHT22;70785;52.570;5.638;2024-01-11T11:36:30;0.50;70.50
81321;DHT22;70785;52.570;5.638;2024-01-11T11:38:59;0.30;70.60
81321;DHT22;70785;52.570;5.638;2024-01-11T11:41:26;0.30;70.70
81321;DHT22;70785;52.570;5.638;2024-01-11T11:43:53;0.30;70.70
81321;DHT22;70785;52.570;5.638;2024-01-11T11:46:19;0.20;70.70
81321;DHT22;70785;52.570;5.638;2024-01-11T11:53:40;0.20;70.90
81321;DHT22;70785;52.570;5.638;2024-01-11T11:56:08;0.20;70.90
81321;DHT22;70785;52.570;5.638;2024-01-11T11:58:38;0.20;70.90
81321;DHT22;70785;52.570;5.638;2024-01-11T12:01:08;0.20;70.90
81321;DHT22;70785;52.570;5.638;2024-01-11T12:03:36;0.30;71.00
81321;DHT22;70785;52.570;5.638;2024-01-11T12:06:09;0.40;70.90
81321;DHT22;70785;52.570;5.638;2024-01-11T12:08:41;0.40;70.90
81321;DHT22;70785;52.570;5.638;2024-01-11T12:11:08;0.50;70.90
81321;DHT22;70785;52.570;5.638;2024-01-11T12:13:34;0.60;70.90
81321;DHT22;70785;52.570;5.638;2024-01-11T12:16:01;0.60;70.90
81321;DHT22;70785;52.570;5.638;2024-01-11T12:18:28;0.60;70.90
81321;DHT22;70785;52.570;5.638;2024-01-11T12:20:54;0.60;70.90
81321;DHT22;70785;52.570;5.638;2024-01-11T12:23:20;0.60;70.90
81321;DHT22;70785;52.570;5.638;2024-01-11T12:25:46;0.70;70.80
81321;DHT22;70785;52.570;5.638;2024-01-11T12:28:13;0.70;70.90
81321;DHT22;70785;52.570;5.638;2024-01-11T12:30:39;0.70;70.90
81321;DHT22;70785;52.570;5.638;2024-01-11T12:33:06;0.70;71.00
81321;DHT22;70785;52.570;5.638;2024-01-11T12:35:32;0.80;71.00
81321;DHT22;70785;52.570;5.638;2024-01-11T12:38:00;0.80;71.00
81321;DHT22;70785;52.570;5.638;2024-01-11T12:40:27;1.00;71.00
81321;DHT22;70785;52.570;5.638;2024-01-11T12:42:53;1.00;70.90
81321;DHT22;70785;52.570;5.638;2024-01-11T12:45:20;1.00;70.90
81321;DHT22;70785;52.570;5.638;2024-01-11T12:47:46;1.00;70.90
81321;DHT22;70785;52.570;5.638;2024-01-11T12:50:12;1.00;70.90
81321;DHT22;70785;52.570;5.638;2024-01-11T12:52:39;1.10;70.90
81321;DHT22;70785;52.570;5.638;2024-01-11T12:55:07;1.00;70.90
81321;DHT22;70785;52.570;5.638;2024-01-11T12:57:34;1.00;71.00
81321;DHT22;70785;52.570;5.638;2024-01-11T13:00:14;1.00;71.10
81321;DHT22;70785;52.570;5.638;2024-01-11T13:02:42;0.90;71.20
81321;DHT22;70785;52.570;5.638;2024-01-11T13:05:12;0.90;71.20
81321;DHT22;70785;52.570;5.638;2024-01-11T13:07:41;0.90;71.20
81321;DHT22;70785;52.570;5.638;2024-01-11T13:10:07;0.90;71.20
81321;DHT22;70785;52.570;5.638;2024-01-11T13:12:33;0.90;71.30
81321;DHT22;70785;52.570;5.638;2024-01-11T13:14:59;1.00;71.30
81321;DHT22;70785;52.570;5.638;2024-01-11T13:17:26;1.00;71.30
81321;DHT22;70785;52.570;5.638;2024-01-11T13:19:53;1.00;71.40
81321;DHT22;70785;52.570;5.638;2024-01-11T13:22:19;1.00;71.40
81321;DHT22;70785;52.570;5.638;2024-01-11T13:24:45;1.00;71.40
81321;DHT22;70785;52.570;5.638;2024-01-11T13:27:11;1.00;71.40
81321;DHT22;70785;52.570;5.638;2024-01-11T13:29:37;1.00;71.50
81321;DHT22;70785;52.570;5.638;2024-01-11T13:32:04;0.90;71.50
81321;DHT22;70785;52.570;5.638;2024-01-11T13:34:30;0.90;71.50
81321;DHT22;70785;52.570;5.638;2024-01-11T13:36:56;0.90;71.60
81321;DHT22;70785;52.570;5.638;2024-01-11T13:39:25;0.90;71.60
81321;DHT22;70785;52.570;5.638;2024-01-11T13:41:51;0.90;71.70
81321;DHT22;70785;52.570;5.638;2024-01-11T13:44:17;0.80;71.70
81321;DHT22;70785;52.570;5.638;2024-01-11T13:46:43;0.80;71.80
81321;DHT22;70785;52.570;5.638;2024-01-11T13:49:09;0.80;71.80
81321;DHT22;70785;52.570;5.638;2024-01-11T13:51:36;0.80;71.90
81321;DHT22;70785;52.570;5.638;2024-01-11T13:54:03;0.80;71.90
81321;DHT22;70785;52.570;5.638;2024-01-11T13:56:29;0.80;72.10
81321;DHT22;70785;52.570;5.638;2024-01-11T13:58:56;0.80;72.10
81321;DHT22;70785;52.570;5.638;2024-01-11T14:01:22;0.90;72.10
81321;DHT22;70785;52.570;5.638;2024-01-11T14:03:48;0.90;72.10
81321;DHT22;70785;52.570;5.638;2024-01-11T14:06:15;0.90;72.10
81321;DHT22;70785;52.570;5.638;2024-01-11T14:08:41;1.00;72.10
81321;DHT22;70785;52.570;5.638;2024-01-11T14:11:07;1.00;72.20
81321;DHT22;70785;52.570;5.638;2024-01-11T14:13:33;0.90;72.30
81321;DHT22;70785;52.570;5.638;2024-01-11T14:15:59;1.00;72.30
81321;DHT22;70785;52.570;5.638;2024-01-11T14:18:26;1.00;72.30
81321;DHT22;70785;52.570;5.638;2024-01-11T14:20:52;1.00;72.30
81321;DHT22;70785;52.570;5.638;2024-01-11T14:23:18;1.00;72.40
81321;DHT22;70785;52.570;5.638;2024-01-11T14:25:44;1.00;72.40
81321;DHT22;70785;52.570;5.638;2024-01-11T14:28:10;1.00;72.50
81321;DHT22;70785;52.570;5.638;2024-01-11T14:30:36;1.00;72.40
81321;DHT22;70785;52.570;5.638;2024-01-11T14:33:02;1.00;72.50
81321;DHT22;70785;52.570;5.638;2024-01-11T14:35:29;1.00;72.50
81321;DHT22;70785;52.570;5.638;2024-01-11T14:37:57;1.00;72.60
81321;DHT22;70785;52.570;5.638;2024-01-11T14:40:23;1.10;72.60
81321;DHT22;70785;52.570;5.638;2024-01-11T14:42:50;1.10;72.70
81321;DHT22;70785;52.570;5.638;2024-01-11T14:45:16;1.10;72.60
81321;DHT22;70785;52.570;5.638;2024-01-11T14:47:43;1.10;72.70
81321;DHT22;70785;52.570;5.638;2024-01-11T14:50:09;1.10;72.70
81321;DHT22;70785;52.570;5.638;2024-01-11T14:52:35;1.10;72.70
81321;DHT22;70785;52.570;5.638;2024-01-11T14:55:01;1.20;72.80
81321;DHT22;70785;52.570;5.638;2024-01-11T14:57:29;1.10;72.80
81321;DHT22;70785;52.570;5.638;2024-01-11T14:59:56;1.10;72.90
81321;DHT22;70785;52.570;5.638;2024-01-11T15:02:22;1.20;72.90
81321;DHT22;70785;52.570;5.638;2024-01-11T15:04:48;1.20;72.90
81321;DHT22;70785;52.570;5.638;2024-01-11T15:07:15;1.20;72.90
81321;DHT22;70785;52.570;5.638;2024-01-11T15:09:42;1.20;73.00
81321;DHT22;70785;52.570;5.638;2024-01-11T15:12:08;1.20;73.00
81321;DHT22;70785;52.570;5.638;2024-01-11T15:14:34;1.20;73.00
81321;DHT22;70785;52.570;5.638;2024-01-11T15:17:00;1.20;73.00
81321;DHT22;70785;52.570;5.638;2024-01-11T15:19:28;1.20;73.00
81321;DHT22;70785;52.570;5.638;2024-01-11T15:21:54;1.20;73.00
81321;DHT22;70785;52.570;5.638;2024-01-11T15:24:20;1.10;73.00
81321;DHT22;70785;52.570;5.638;2024-01-11T15:26:47;1.10;73.00
81321;DHT22;70785;52.570;5.638;2024-01-11T15:29:14;1.10;73.10
81321;DHT22;70785;52.570;5.638;2024-01-11T15:31:40;1.10;73.10
81321;DHT22;70785;52.570;5.638;2024-01-11T15:34:11;1.00;73.10
81321;DHT22;70785;52.570;5.638;2024-01-11T15:36:38;1.00;73.20
81321;DHT22;70785;52.570;5.638;2024-01-11T15:39:06;0.80;73.20